METAR Data
IDs: Format: Raw Decoded Include TAF

Data at: 0949 UTC 13 Aug 2022

EDQM 130920Z VRB08KT CAVOK 23/08 Q1019